createdAt,value
2023-01-15T00:02:50.192Z,78.15
2023-01-15T00:07:52.301Z,78.37
2023-01-15T00:12:54.004Z,77.75
2023-01-15T00:17:55.633Z,77.12
2023-01-15T00:22:57.281Z,77.93
2023-01-15T00:28:00.969Z,75.69
2023-01-15T00:33:03.441Z,76.44
2023-01-15T00:38:05.242Z,75.62
2023-01-15T00:43:06.968Z,76.04
2023-01-15T00:48:09.179Z,76.73
2023-01-15T00:53:10.945Z,76.38
2023-01-15T00:58:12.675Z,74.52
2023-01-15T01:03:14.336Z,75.35
2023-01-15T01:08:17.076Z,75.41
2023-01-15T01:13:18.790Z,75.92
2023-01-15T01:18:20.486Z,75.97
2023-01-15T01:23:25.247Z,76.81
2023-01-15T01:28:26.893Z,75.95
2023-01-15T01:33:28.507Z,75.70
2023-01-15T01:38:30.556Z,76.14
2023-01-15T01:44:11.573Z,75.92
2023-01-15T01:49:14.484Z,75.98
2023-01-15T01:54:20.658Z,74.98
2023-01-15T01:59:24.233Z,76.48
2023-01-15T02:04:27.715Z,75.67
2023-01-15T02:09:29.562Z,75.54
2023-01-15T02:14:42.555Z,76.39
2023-01-15T02:19:58.958Z,75.79
2023-01-15T02:25:19.474Z,74.98
2023-01-15T02:30:31.243Z,74.13
2023-01-15T02:35:43.520Z,74.69
2023-01-15T02:40:50.607Z,75.75
2023-01-15T02:45:58.722Z,76.86
2023-01-15T02:51:07.469Z,78.40
2023-01-15T02:56:14.701Z,76.57
2023-01-15T03:01:29.434Z,76.77
2023-01-15T03:06:55.907Z,74.26
2023-01-15T03:12:28.712Z,74.97
2023-01-15T03:17:39.496Z,72.87
2023-01-15T03:22:46.118Z,74.08
2023-01-15T03:27:52.427Z,74.98
2023-01-15T03:32:56.534Z,73.18
2023-01-15T03:37:59.485Z,74.32
2023-01-15T03:43:27.936Z,76.71
2023-01-15T03:48:41.842Z,79.86
2023-01-15T03:53:53.548Z,78.89
2023-01-15T03:59:16.066Z,77.50
2023-01-15T04:04:32.193Z,76.70
2023-01-15T04:09:40.585Z,77.03
2023-01-15T04:14:45.851Z,75.78
2023-01-15T04:19:52.637Z,78.00
2023-01-15T04:24:55.156Z,77.52
2023-01-15T04:29:56.987Z,80.01
2023-01-15T04:34:58.695Z,79.47
2023-01-15T04:40:00.458Z,79.07
2023-01-15T04:45:02.128Z,78.50
2023-01-15T04:50:03.977Z,78.21
2023-01-15T04:55:05.911Z,77.80
2023-01-15T05:00:08.361Z,77.13
2023-01-15T05:05:10.454Z,77.00
2023-01-15T05:10:12.137Z,78.12
2023-01-15T05:15:13.863Z,77.25
2023-01-15T05:20:15.668Z,74.96
2023-01-15T05:25:17.682Z,74.89
2023-01-15T05:30:19.496Z,75.51
2023-01-15T05:35:21.448Z,75.40
2023-01-15T05:40:23.108Z,76.28
2023-01-15T05:45:24.756Z,74.43
2023-01-15T05:50:28.939Z,73.05
2023-01-15T05:55:30.716Z,74.14
2023-01-15T06:00:32.388Z,75.13
2023-01-15T06:05:34.113Z,73.62
2023-01-15T06:10:35.834Z,73.23
2023-01-15T06:15:37.653Z,72.83
2023-01-15T06:20:40.547Z,73.19
2023-01-15T06:25:42.290Z,72.94
2023-01-15T06:30:44.002Z,73.90
2023-01-15T06:35:45.652Z,87.10
2023-01-15T06:40:47.366Z,95.96
2023-01-15T06:46:07.654Z,100.00
2023-01-15T06:51:09.449Z,100.00
2023-01-15T06:56:11.133Z,100.00
2023-01-15T07:01:15.550Z,100.00
2023-01-15T07:06:17.253Z,100.00
2023-01-15T07:11:19.050Z,100.00
2023-01-15T07:16:29.648Z,100.00
2023-01-15T07:21:31.383Z,100.00
2023-01-15T07:26:33.550Z,100.00
2023-01-15T07:31:35.331Z,100.00
2023-01-15T07:36:38.016Z,100.00
2023-01-15T07:41:58.488Z,100.00
2023-01-15T07:47:18.596Z,100.00
2023-01-15T07:52:22.017Z,100.00
2023-01-15T07:57:24.306Z,100.00
2023-01-15T08:02:27.255Z,100.00
2023-01-15T08:07:29.048Z,100.00
2023-01-15T08:12:48.915Z,100.00
2023-01-15T08:17:51.692Z,100.00
2023-01-15T08:22:53.647Z,100.00
2023-01-15T08:27:55.567Z,100.00
2023-01-15T08:33:03.267Z,100.00
2023-01-15T08:38:06.950Z,100.00
2023-01-15T08:43:08.682Z,100.00
2023-01-15T08:48:10.424Z,100.00
2023-01-15T08:53:12.218Z,100.00
2023-01-15T08:58:14.040Z,100.00
2023-01-15T09:03:15.876Z,100.00
2023-01-15T09:08:19.660Z,100.00
2023-01-15T09:13:22.111Z,100.00
2023-01-15T09:18:24.102Z,100.00
2023-01-15T09:23:25.897Z,100.00
2023-01-15T09:28:29.328Z,100.00
2023-01-15T09:33:31.089Z,100.00
2023-01-15T09:38:34.504Z,100.00
2023-01-15T09:44:11.430Z,100.00
2023-01-15T09:49:28.088Z,100.00
2023-01-15T09:54:41.251Z,100.00
2023-01-15T09:59:49.156Z,100.00
2023-01-15T10:04:57.570Z,100.00
2023-01-15T10:10:05.701Z,100.00
2023-01-15T10:15:13.387Z,100.00
2023-01-15T10:20:48.665Z,100.00
2023-01-15T10:25:59.059Z,100.00
2023-01-15T10:31:19.413Z,100.00
2023-01-15T10:36:30.201Z,99.24
2023-01-15T10:41:31.821Z,98.20
2023-01-15T10:46:38.408Z,96.71
2023-01-15T10:51:47.022Z,94.42
2023-01-15T10:57:11.662Z,91.38
2023-01-15T11:02:22.049Z,86.54
2023-01-15T11:07:33.474Z,84.52
2023-01-15T11:12:54.288Z,85.32
2023-01-15T11:18:14.565Z,81.78
2023-01-15T11:23:20.100Z,83.44
2023-01-15T11:28:35.552Z,84.25
2023-01-15T11:33:38.333Z,83.88
2023-01-15T11:38:50.609Z,83.68
2023-01-15T11:44:16.476Z,83.77
2023-01-15T11:49:39.175Z,84.18
2023-01-15T11:54:44.248Z,82.33
2023-01-15T11:59:49.412Z,83.39
2023-01-15T12:04:59.046Z,84.46
2023-01-15T12:10:05.631Z,82.58
2023-01-15T12:15:29.144Z,82.87
2023-01-15T12:20:55.740Z,84.05
2023-01-15T12:26:03.408Z,82.10
2023-01-15T12:31:17.064Z,80.13
2023-01-15T12:36:24.273Z,79.53
2023-01-15T12:41:52.667Z,79.85
2023-01-15T12:46:54.566Z,77.19
2023-01-15T12:52:11.572Z,78.90
2023-01-15T12:57:18.697Z,76.92
2023-01-15T13:02:43.798Z,77.81
2023-01-15T13:08:03.492Z,76.55
2023-01-15T13:13:15.110Z,78.38
2023-01-15T13:18:28.188Z,76.55
2023-01-15T13:23:30.339Z,75.51
2023-01-15T13:29:09.557Z,72.93
2023-01-15T13:34:36.062Z,71.94
2023-01-15T13:39:42.065Z,72.66
2023-01-15T13:44:50.287Z,71.70
2023-01-15T13:50:04.762Z,72.01
2023-01-15T13:55:12.352Z,70.29
2023-01-15T14:00:36.305Z,70.64
2023-01-15T14:05:39.498Z,69.14
2023-01-15T14:10:41.321Z,69.65
2023-01-15T14:16:07.399Z,69.42
2023-01-15T14:21:40.760Z,69.43
2023-01-15T14:26:57.684Z,69.62
2023-01-15T14:32:12.567Z,69.52
2023-01-15T14:37:30.197Z,70.20
2023-01-15T14:42:54.334Z,70.27
2023-01-15T14:48:16.403Z,70.91
2023-01-15T14:53:31.573Z,70.65
2023-01-15T14:59:12.633Z,71.60
2023-01-15T15:04:39.556Z,71.30
2023-01-15T15:09:57.575Z,72.96
2023-01-15T15:15:26.742Z,73.88
2023-01-15T15:20:31.695Z,70.86
2023-01-15T15:25:38.202Z,69.83
2023-01-15T15:30:45.075Z,67.80
2023-01-15T15:35:57.218Z,67.78
2023-01-15T15:41:02.385Z,66.67
2023-01-15T15:46:39.358Z,66.25
2023-01-15T15:51:54.683Z,66.04
2023-01-15T15:57:09.477Z,66.90
2023-01-15T16:02:19.392Z,66.89
2023-01-15T16:07:38.224Z,66.90
2023-01-15T16:12:45.717Z,67.30
2023-01-15T16:17:49.627Z,67.23
2023-01-15T16:23:02.689Z,66.48
2023-01-15T16:28:05.257Z,66.65
2023-01-15T16:33:08.177Z,66.95
2023-01-15T16:38:22.646Z,67.83
2023-01-15T16:43:26.413Z,68.31
2023-01-15T16:48:36.717Z,69.09
2023-01-15T16:53:40.691Z,68.93
2023-01-15T16:58:42.438Z,68.79
2023-01-15T17:03:44.348Z,68.21
2023-01-15T17:08:49.368Z,68.17
2023-01-15T17:13:52.064Z,69.39
2023-01-15T17:18:53.922Z,69.63
2023-01-15T17:23:57.399Z,68.62
2023-01-15T17:28:59.062Z,66.74
2023-01-15T17:34:03.146Z,66.99
2023-01-15T17:39:04.812Z,66.00
2023-01-15T17:44:06.986Z,66.35
2023-01-15T17:49:08.703Z,65.80
2023-01-15T17:54:10.692Z,65.79
2023-01-15T17:59:30.781Z,65.62
2023-01-15T18:04:56.079Z,65.24
2023-01-15T18:09:59.434Z,65.94
2023-01-15T18:15:01.219Z,65.94
2023-01-15T18:20:03.201Z,66.10
2023-01-15T18:25:06.644Z,65.56
2023-01-15T18:30:13.103Z,66.02
2023-01-15T18:35:14.988Z,65.77
2023-01-15T18:40:16.797Z,66.03
2023-01-15T18:45:37.378Z,65.98
2023-01-15T18:50:39.049Z,65.94
2023-01-15T18:55:40.816Z,65.45
2023-01-15T19:00:42.639Z,65.77
2023-01-15T19:05:44.295Z,65.64
2023-01-15T19:10:46.001Z,64.98
2023-01-15T19:16:06.357Z,65.69
2023-01-15T19:21:10.446Z,65.36
2023-01-15T19:26:12.221Z,65.27
2023-01-15T19:31:32.494Z,65.03
2023-01-15T19:36:34.972Z,65.57
2023-01-15T19:41:54.993Z,64.92
2023-01-15T19:47:15.051Z,65.03
2023-01-15T19:52:35.125Z,65.05
2023-01-15T19:57:37.933Z,64.80
2023-01-15T20:02:39.666Z,64.85
2023-01-15T20:07:42.499Z,64.83
2023-01-15T20:13:02.754Z,65.64
2023-01-15T20:18:05.552Z,65.54
2023-01-15T20:23:07.224Z,66.05
2023-01-15T20:28:08.874Z,65.33
2023-01-15T20:33:33.822Z,65.07
2023-01-15T20:38:39.697Z,64.57
2023-01-15T20:44:15.283Z,64.90
2023-01-15T20:49:28.114Z,64.71
2023-01-15T20:54:29.803Z,64.29
2023-01-15T20:59:31.468Z,65.32
2023-01-15T21:04:33.435Z,65.16
2023-01-15T21:09:35.183Z,64.57
2023-01-15T21:14:36.967Z,64.35
2023-01-15T21:19:38.685Z,64.49
2023-01-15T21:24:40.401Z,64.01
2023-01-15T21:29:42.053Z,63.94
2023-01-15T21:34:43.763Z,63.91
2023-01-15T21:39:45.457Z,64.01
2023-01-15T21:44:47.183Z,64.26
2023-01-15T21:49:49.135Z,64.93
2023-01-15T21:54:52.152Z,64.85
2023-01-15T21:59:53.806Z,65.10
2023-01-15T22:04:55.588Z,64.88
2023-01-15T22:09:57.261Z,65.63
2023-01-15T22:14:58.905Z,65.45
2023-01-15T22:20:00.595Z,66.15
2023-01-15T22:25:02.754Z,65.05
2023-01-15T22:30:05.034Z,65.90
2023-01-15T22:35:07.684Z,66.89
2023-01-15T22:40:09.835Z,66.28
2023-01-15T22:45:11.805Z,66.65
2023-01-15T22:50:13.469Z,67.46
2023-01-15T22:55:15.169Z,68.65
2023-01-15T23:00:17.785Z,69.19
2023-01-15T23:05:19.478Z,69.75
2023-01-15T23:10:21.300Z,69.48
2023-01-15T23:15:22.962Z,69.66
2023-01-15T23:20:24.643Z,69.90
2023-01-15T23:25:26.431Z,69.71
2023-01-15T23:30:28.140Z,70.94
2023-01-15T23:35:30.198Z,70.36
2023-01-15T23:40:31.829Z,70.70
2023-01-15T23:45:54.293Z,70.86
2023-01-15T23:50:56.004Z,72.20
2023-01-15T23:55:59.592Z,73.30
